sensor_id;sensor_type;location;lat;lon;timestamp;P1;durP1;ratioP1;P2;durP2;ratioP2
19396;SDS011;9834;48.076;11.878;2023-07-09T00:01:52;6.10;;;4.20;;
19396;SDS011;9834;48.076;11.878;2023-07-09T00:04:19;7.40;;;3.53;;
19396;SDS011;9834;48.076;11.878;2023-07-09T00:06:46;5.40;;;3.97;;
19396;SDS011;9834;48.076;11.878;2023-07-09T00:09:18;8.27;;;4.13;;
19396;SDS011;9834;48.076;11.878;2023-07-09T00:11:47;9.73;;;3.93;;
19396;SDS011;9834;48.076;11.878;2023-07-09T00:14:15;5.47;;;4.80;;
19396;SDS011;9834;48.076;11.878;2023-07-09T00:16:43;8.27;;;5.20;;
19396;SDS011;9834;48.076;11.878;2023-07-09T00:19:13;7.20;;;4.13;;
19396;SDS011;9834;48.076;11.878;2023-07-09T00:21:42;4.47;;;4.07;;
19396;SDS011;9834;48.076;11.878;2023-07-09T00:24:10;5.10;;;3.80;;
19396;SDS011;9834;48.076;11.878;2023-07-09T00:26:39;6.97;;;4.67;;
19396;SDS011;9834;48.076;11.878;2023-07-09T00:29:08;5.30;;;4.37;;
19396;SDS011;9834;48.076;11.878;2023-07-09T00:31:36;5.13;;;3.43;;
19396;SDS011;9834;48.076;11.878;2023-07-09T00:34:06;3.87;;;3.33;;
19396;SDS011;9834;48.076;11.878;2023-07-09T00:36:33;4.47;;;3.73;;
19396;SDS011;9834;48.076;11.878;2023-07-09T00:39:00;4.30;;;3.90;;
19396;SDS011;9834;48.076;11.878;2023-07-09T00:41:33;5.97;;;4.70;;
19396;SDS011;9834;48.076;11.878;2023-07-09T00:44:18;4.93;;;3.57;;
19396;SDS011;9834;48.076;11.878;2023-07-09T00:50:03;4.80;;;4.37;;
19396;SDS011;9834;48.076;11.878;2023-07-09T00:52:37;3.60;;;3.30;;
19396;SDS011;9834;48.076;11.878;2023-07-09T00:55:11;8.40;;;4.07;;
19396;SDS011;9834;48.076;11.878;2023-07-09T00:57:44;7.43;;;4.70;;
19396;SDS011;9834;48.076;11.878;2023-07-09T01:00:23;6.80;;;4.40;;
19396;SDS011;9834;48.076;11.878;2023-07-09T01:02:54;5.07;;;4.57;;
19396;SDS011;9834;48.076;11.878;2023-07-09T01:05:24;8.10;;;4.60;;
19396;SDS011;9834;48.076;11.878;2023-07-09T01:07:51;6.77;;;4.47;;
19396;SDS011;9834;48.076;11.878;2023-07-09T01:10:18;5.30;;;3.93;;
19396;SDS011;9834;48.076;11.878;2023-07-09T01:12:46;5.97;;;4.90;;
19396;SDS011;9834;48.076;11.878;2023-07-09T01:15:14;5.73;;;3.90;;
19396;SDS011;9834;48.076;11.878;2023-07-09T01:17:43;3.33;;;3.03;;
19396;SDS011;9834;48.076;11.878;2023-07-09T01:20:14;5.57;;;4.43;;
19396;SDS011;9834;48.076;11.878;2023-07-09T01:22:47;4.33;;;3.93;;
19396;SDS011;9834;48.076;11.878;2023-07-09T01:25:16;4.37;;;3.97;;
19396;SDS011;9834;48.076;11.878;2023-07-09T01:27:44;6.07;;;5.00;;
19396;SDS011;9834;48.076;11.878;2023-07-09T01:30:15;4.60;;;4.10;;
19396;SDS011;9834;48.076;11.878;2023-07-09T01:32:47;5.00;;;4.07;;
19396;SDS011;9834;48.076;11.878;2023-07-09T01:35:15;6.23;;;3.90;;
19396;SDS011;9834;48.076;11.878;2023-07-09T01:37:43;6.07;;;4.60;;
19396;SDS011;9834;48.076;11.878;2023-07-09T01:40:13;5.50;;;3.97;;
19396;SDS011;9834;48.076;11.878;2023-07-09T01:42:42;5.93;;;3.97;;
19396;SDS011;9834;48.076;11.878;2023-07-09T01:45:09;3.47;;;3.17;;
19396;SDS011;9834;48.076;11.878;2023-07-09T01:47:37;4.03;;;3.43;;
19396;SDS011;9834;48.076;11.878;2023-07-09T01:50:05;8.50;;;4.90;;
19396;SDS011;9834;48.076;11.878;2023-07-09T01:52:35;4.63;;;4.20;;
19396;SDS011;9834;48.076;11.878;2023-07-09T01:55:04;5.07;;;4.00;;
19396;SDS011;9834;48.076;11.878;2023-07-09T01:57:33;4.73;;;4.20;;
19396;SDS011;9834;48.076;11.878;2023-07-09T02:00:01;5.57;;;4.43;;
19396;SDS011;9834;48.076;11.878;2023-07-09T02:02:31;5.73;;;4.47;;
19396;SDS011;9834;48.076;11.878;2023-07-09T02:04:58;7.50;;;4.40;;
19396;SDS011;9834;48.076;11.878;2023-07-09T02:07:26;4.47;;;2.87;;
19396;SDS011;9834;48.076;11.878;2023-07-09T02:09:53;5.77;;;4.20;;
19396;SDS011;9834;48.076;11.878;2023-07-09T02:12:20;5.30;;;4.47;;
19396;SDS011;9834;48.076;11.878;2023-07-09T02:14:49;11.37;;;4.00;;
19396;SDS011;9834;48.076;11.878;2023-07-09T02:17:16;6.30;;;3.77;;
19396;SDS011;9834;48.076;11.878;2023-07-09T02:19:43;5.37;;;4.10;;
19396;SDS011;9834;48.076;11.878;2023-07-09T02:22:11;4.37;;;3.73;;
19396;SDS011;9834;48.076;11.878;2023-07-09T02:24:38;3.43;;;3.13;;
19396;SDS011;9834;48.076;11.878;2023-07-09T02:27:06;4.03;;;3.63;;
19396;SDS011;9834;48.076;11.878;2023-07-09T02:29:35;4.70;;;4.00;;
19396;SDS011;9834;48.076;11.878;2023-07-09T02:32:05;6.27;;;4.17;;
19396;SDS011;9834;48.076;11.878;2023-07-09T02:34:32;5.40;;;4.00;;
19396;SDS011;9834;48.076;11.878;2023-07-09T02:37:00;3.43;;;3.13;;
19396;SDS011;9834;48.076;11.878;2023-07-09T02:39:27;5.27;;;3.57;;
19396;SDS011;9834;48.076;11.878;2023-07-09T02:41:54;4.97;;;3.27;;
19396;SDS011;9834;48.076;11.878;2023-07-09T02:44:21;3.47;;;3.17;;
19396;SDS011;9834;48.076;11.878;2023-07-09T02:46:48;5.67;;;4.07;;
19396;SDS011;9834;48.076;11.878;2023-07-09T02:49:18;4.63;;;3.83;;
19396;SDS011;9834;48.076;11.878;2023-07-09T02:51:45;4.90;;;3.80;;
19396;SDS011;9834;48.076;11.878;2023-07-09T02:54:12;4.77;;;4.30;;
19396;SDS011;9834;48.076;11.878;2023-07-09T02:56:39;7.90;;;4.13;;
19396;SDS011;9834;48.076;11.878;2023-07-09T02:59:06;6.73;;;3.63;;
19396;SDS011;9834;48.076;11.878;2023-07-09T03:01:33;3.47;;;3.13;;
19396;SDS011;9834;48.076;11.878;2023-07-09T03:04:01;9.60;;;4.13;;
19396;SDS011;9834;48.076;11.878;2023-07-09T03:06:30;3.53;;;3.23;;
19396;SDS011;9834;48.076;11.878;2023-07-09T03:08:59;6.20;;;3.53;;
19396;SDS011;9834;48.076;11.878;2023-07-09T03:11:27;6.33;;;3.77;;
19396;SDS011;9834;48.076;11.878;2023-07-09T03:13:55;4.53;;;3.67;;
19396;SDS011;9834;48.076;11.878;2023-07-09T03:16:22;4.07;;;3.77;;
19396;SDS011;9834;48.076;11.878;2023-07-09T03:18:49;5.50;;;3.43;;
19396;SDS011;9834;48.076;11.878;2023-07-09T03:21:16;5.13;;;3.87;;
19396;SDS011;9834;48.076;11.878;2023-07-09T03:23:44;3.30;;;3.00;;
19396;SDS011;9834;48.076;11.878;2023-07-09T03:26:11;7.63;;;4.07;;
19396;SDS011;9834;48.076;11.878;2023-07-09T03:28:38;6.87;;;3.83;;
19396;SDS011;9834;48.076;11.878;2023-07-09T03:31:05;4.67;;;3.40;;
19396;SDS011;9834;48.076;11.878;2023-07-09T03:33:32;5.33;;;3.93;;
19396;SDS011;9834;48.076;11.878;2023-07-09T03:35:59;5.03;;;3.03;;
19396;SDS011;9834;48.076;11.878;2023-07-09T03:38:26;5.00;;;3.70;;
19396;SDS011;9834;48.076;11.878;2023-07-09T03:40:55;4.97;;;3.80;;
19396;SDS011;9834;48.076;11.878;2023-07-09T03:43:22;5.60;;;4.17;;
19396;SDS011;9834;48.076;11.878;2023-07-09T03:45:49;4.40;;;4.00;;
19396;SDS011;9834;48.076;11.878;2023-07-09T03:48:18;7.53;;;3.80;;
19396;SDS011;9834;48.076;11.878;2023-07-09T03:50:46;4.90;;;3.27;;
19396;SDS011;9834;48.076;11.878;2023-07-09T03:53:14;7.40;;;3.70;;
19396;SDS011;9834;48.076;11.878;2023-07-09T03:55:42;4.20;;;3.43;;
19396;SDS011;9834;48.076;11.878;2023-07-09T03:58:13;9.30;;;4.00;;
19396;SDS011;9834;48.076;11.878;2023-07-09T04:00:40;3.87;;;3.40;;
19396;SDS011;9834;48.076;11.878;2023-07-09T04:03:07;4.27;;;3.87;;
19396;SDS011;9834;48.076;11.878;2023-07-09T04:05:35;3.63;;;3.30;;
19396;SDS011;9834;48.076;11.878;2023-07-09T04:08:02;4.67;;;3.43;;
19396;SDS011;9834;48.076;11.878;2023-07-09T04:10:30;3.23;;;2.93;;
19396;SDS011;9834;48.076;11.878;2023-07-09T04:12:57;7.80;;;3.90;;
19396;SDS011;9834;48.076;11.878;2023-07-09T04:15:25;4.30;;;3.77;;
19396;SDS011;9834;48.076;11.878;2023-07-09T04:17:53;4.00;;;3.10;;
19396;SDS011;9834;48.076;11.878;2023-07-09T04:20:21;4.53;;;3.90;;
19396;SDS011;9834;48.076;11.878;2023-07-09T04:22:48;4.73;;;3.30;;
19396;SDS011;9834;48.076;11.878;2023-07-09T04:25:15;3.10;;;2.67;;
19396;SDS011;9834;48.076;11.878;2023-07-09T04:27:43;3.73;;;3.40;;
19396;SDS011;9834;48.076;11.878;2023-07-09T04:30:11;5.60;;;3.27;;
19396;SDS011;9834;48.076;11.878;2023-07-09T04:32:41;4.30;;;2.80;;
19396;SDS011;9834;48.076;11.878;2023-07-09T04:35:09;4.30;;;3.10;;
19396;SDS011;9834;48.076;11.878;2023-07-09T04:37:37;5.03;;;3.50;;
19396;SDS011;9834;48.076;11.878;2023-07-09T04:40:05;3.17;;;2.87;;
19396;SDS011;9834;48.076;11.878;2023-07-09T04:42:35;5.43;;;3.40;;
19396;SDS011;9834;48.076;11.878;2023-07-09T04:45:05;2.87;;;2.67;;
19396;SDS011;9834;48.076;11.878;2023-07-09T04:47:33;5.13;;;3.87;;
19396;SDS011;9834;48.076;11.878;2023-07-09T04:50:01;7.27;;;4.77;;
19396;SDS011;9834;48.076;11.878;2023-07-09T04:52:28;8.90;;;4.90;;
19396;SDS011;9834;48.076;11.878;2023-07-09T04:54:56;4.60;;;3.63;;
19396;SDS011;9834;48.076;11.878;2023-07-09T04:57:24;9.17;;;4.37;;
19396;SDS011;9834;48.076;11.878;2023-07-09T04:59:51;6.20;;;3.77;;
19396;SDS011;9834;48.076;11.878;2023-07-09T05:02:18;3.63;;;3.33;;
19396;SDS011;9834;48.076;11.878;2023-07-09T05:04:45;4.40;;;3.10;;
19396;SDS011;9834;48.076;11.878;2023-07-09T05:07:14;4.07;;;3.67;;
19396;SDS011;9834;48.076;11.878;2023-07-09T05:09:41;4.30;;;3.33;;
19396;SDS011;9834;48.076;11.878;2023-07-09T05:12:08;2.93;;;2.70;;
19396;SDS011;9834;48.076;11.878;2023-07-09T05:14:35;4.97;;;3.13;;
19396;SDS011;9834;48.076;11.878;2023-07-09T05:17:03;6.00;;;2.53;;
19396;SDS011;9834;48.076;11.878;2023-07-09T05:19:30;4.63;;;3.57;;
19396;SDS011;9834;48.076;11.878;2023-07-09T05:21:57;3.67;;;2.57;;
19396;SDS011;9834;48.076;11.878;2023-07-09T05:24:26;6.40;;;3.00;;
19396;SDS011;9834;48.076;11.878;2023-07-09T05:26:53;3.37;;;2.97;;
19396;SDS011;9834;48.076;11.878;2023-07-09T05:29:20;3.77;;;3.37;;
19396;SDS011;9834;48.076;11.878;2023-07-09T05:31:47;3.70;;;3.00;;
19396;SDS011;9834;48.076;11.878;2023-07-09T05:34:14;4.53;;;3.27;;
19396;SDS011;9834;48.076;11.878;2023-07-09T05:36:44;2.87;;;2.53;;
19396;SDS011;9834;48.076;11.878;2023-07-09T05:39:11;3.90;;;3.20;;
19396;SDS011;9834;48.076;11.878;2023-07-09T05:41:40;3.70;;;2.70;;
19396;SDS011;9834;48.076;11.878;2023-07-09T05:44:07;3.37;;;2.67;;
19396;SDS011;9834;48.076;11.878;2023-07-09T05:46:34;3.07;;;2.73;;
19396;SDS011;9834;48.076;11.878;2023-07-09T05:49:02;4.03;;;3.63;;
19396;SDS011;9834;48.076;11.878;2023-07-09T05:51:30;4.33;;;2.57;;
19396;SDS011;9834;48.076;11.878;2023-07-09T05:53:57;6.40;;;3.80;;
19396;SDS011;9834;48.076;11.878;2023-07-09T05:56:23;6.85;;;4.05;;
19396;SDS011;9834;48.076;11.878;2023-07-09T05:58:52;2.87;;;2.50;;
19396;SDS011;9834;48.076;11.878;2023-07-09T06:01:19;3.20;;;2.90;;
19396;SDS011;9834;48.076;11.878;2023-07-09T06:03:46;7.60;;;3.55;;
19396;SDS011;9834;48.076;11.878;2023-07-09T06:06:14;2.72;;;2.53;;
19396;SDS011;9834;48.076;11.878;2023-07-09T06:08:41;3.35;;;2.70;;
19396;SDS011;9834;48.076;11.878;2023-07-09T06:11:08;3.30;;;3.00;;
19396;SDS011;9834;48.076;11.878;2023-07-09T06:13:35;2.28;;;2.08;;
19396;SDS011;9834;48.076;11.878;2023-07-09T06:16:04;2.53;;;2.33;;
19396;SDS011;9834;48.076;11.878;2023-07-09T06:18:31;4.15;;;2.35;;
19396;SDS011;9834;48.076;11.878;2023-07-09T06:21:02;3.70;;;2.35;;
19396;SDS011;9834;48.076;11.878;2023-07-09T06:23:29;3.53;;;2.30;;
19396;SDS011;9834;48.076;11.878;2023-07-09T06:25:57;2.83;;;2.33;;
19396;SDS011;9834;48.076;11.878;2023-07-09T06:28:25;2.67;;;2.08;;
19396;SDS011;9834;48.076;11.878;2023-07-09T06:30:54;13.25;;;2.28;;
19396;SDS011;9834;48.076;11.878;2023-07-09T06:33:23;1.80;;;1.70;;
19396;SDS011;9834;48.076;11.878;2023-07-09T06:35:52;3.20;;;1.90;;
19396;SDS011;9834;48.076;11.878;2023-07-09T06:38:20;2.80;;;1.83;;
19396;SDS011;9834;48.076;11.878;2023-07-09T06:40:47;2.00;;;1.88;;
19396;SDS011;9834;48.076;11.878;2023-07-09T06:43:15;3.30;;;1.67;;
19396;SDS011;9834;48.076;11.878;2023-07-09T06:45:48;1.58;;;1.48;;
19396;SDS011;9834;48.076;11.878;2023-07-09T06:48:16;2.28;;;1.90;;
19396;SDS011;9834;48.076;11.878;2023-07-09T06:50:44;1.80;;;1.70;;
19396;SDS011;9834;48.076;11.878;2023-07-09T06:53:12;2.50;;;2.00;;
19396;SDS011;9834;48.076;11.878;2023-07-09T06:55:39;2.50;;;1.83;;
19396;SDS011;9834;48.076;11.878;2023-07-09T06:58:06;2.33;;;1.73;;
19396;SDS011;9834;48.076;11.878;2023-07-09T07:00:33;2.40;;;2.00;;
19396;SDS011;9834;48.076;11.878;2023-07-09T07:03:01;6.78;;;2.55;;
19396;SDS011;9834;48.076;11.878;2023-07-09T07:05:29;2.95;;;2.60;;
19396;SDS011;9834;48.076;11.878;2023-07-09T07:07:57;2.03;;;1.83;;
19396;SDS011;9834;48.076;11.878;2023-07-09T07:10:25;4.00;;;2.65;;
19396;SDS011;9834;48.076;11.878;2023-07-09T07:12:53;2.88;;;2.38;;
19396;SDS011;9834;48.076;11.878;2023-07-09T07:15:20;2.38;;;2.10;;
19396;SDS011;9834;48.076;11.878;2023-07-09T07:17:47;5.25;;;2.30;;
19396;SDS011;9834;48.076;11.878;2023-07-09T07:20:14;2.72;;;2.03;;
19396;SDS011;9834;48.076;11.878;2023-07-09T07:22:42;5.22;;;2.30;;
19396;SDS011;9834;48.076;11.878;2023-07-09T07:25:10;2.13;;;1.92;;
19396;SDS011;9834;48.076;11.878;2023-07-09T07:27:37;3.65;;;2.35;;
19396;SDS011;9834;48.076;11.878;2023-07-09T07:30:05;2.03;;;1.90;;
19396;SDS011;9834;48.076;11.878;2023-07-09T07:32:34;2.70;;;2.47;;
19396;SDS011;9834;48.076;11.878;2023-07-09T07:35:02;4.30;;;2.33;;
19396;SDS011;9834;48.076;11.878;2023-07-09T07:37:29;5.78;;;2.83;;
19396;SDS011;9834;48.076;11.878;2023-07-09T07:39:56;3.03;;;2.70;;
19396;SDS011;9834;48.076;11.878;2023-07-09T07:42:25;2.25;;;2.10;;
19396;SDS011;9834;48.076;11.878;2023-07-09T07:44:51;4.80;;;2.55;;
19396;SDS011;9834;48.076;11.878;2023-07-09T07:47:18;3.10;;;2.05;;
19396;SDS011;9834;48.076;11.878;2023-07-09T07:49:45;2.25;;;2.05;;
19396;SDS011;9834;48.076;11.878;2023-07-09T07:52:13;2.03;;;1.85;;
19396;SDS011;9834;48.076;11.878;2023-07-09T07:54:40;3.50;;;2.47;;
19396;SDS011;9834;48.076;11.878;2023-07-09T07:57:07;5.15;;;2.80;;
19396;SDS011;9834;48.076;11.878;2023-07-09T07:59:37;3.13;;;2.83;;
19396;SDS011;9834;48.076;11.878;2023-07-09T08:02:05;2.78;;;2.08;;
19396;SDS011;9834;48.076;11.878;2023-07-09T08:04:36;1.95;;;1.77;;
19396;SDS011;9834;48.076;11.878;2023-07-09T08:07:03;4.32;;;2.80;;
19396;SDS011;9834;48.076;11.878;2023-07-09T08:09:32;2.50;;;2.30;;
19396;SDS011;9834;48.076;11.878;2023-07-09T08:11:59;2.50;;;2.00;;
19396;SDS011;9834;48.076;11.878;2023-07-09T08:14:26;3.88;;;2.60;;
19396;SDS011;9834;48.076;11.878;2023-07-09T08:16:55;3.45;;;2.28;;
19396;SDS011;9834;48.076;11.878;2023-07-09T08:19:22;3.13;;;2.25;;
19396;SDS011;9834;48.076;11.878;2023-07-09T08:21:49;2.88;;;2.38;;
19396;SDS011;9834;48.076;11.878;2023-07-09T08:24:16;3.63;;;2.38;;
19396;SDS011;9834;48.076;11.878;2023-07-09T08:26:43;3.10;;;2.42;;
19396;SDS011;9834;48.076;11.878;2023-07-09T08:29:10;3.47;;;2.70;;
19396;SDS011;9834;48.076;11.878;2023-07-09T08:31:37;3.90;;;2.67;;
19396;SDS011;9834;48.076;11.878;2023-07-09T08:34:06;2.25;;;2.05;;
19396;SDS011;9834;48.076;11.878;2023-07-09T08:36:33;2.75;;;1.92;;
19396;SDS011;9834;48.076;11.878;2023-07-09T08:39:00;2.10;;;2.00;;
19396;SDS011;9834;48.076;11.878;2023-07-09T08:41:35;2.03;;;1.80;;
19396;SDS011;9834;48.076;11.878;2023-07-09T08:44:14;2.40;;;2.15;;
19396;SDS011;9834;48.076;11.878;2023-07-09T08:46:54;3.63;;;1.75;;
19396;SDS011;9834;48.076;11.878;2023-07-09T08:49:30;2.83;;;2.25;;
19396;SDS011;9834;48.076;11.878;2023-07-09T08:52:05;5.50;;;2.72;;
19396;SDS011;9834;48.076;11.878;2023-07-09T08:54:40;3.10;;;1.63;;
19396;SDS011;9834;48.076;11.878;2023-07-09T08:57:13;3.47;;;2.55;;
19396;SDS011;9834;48.076;11.878;2023-07-09T08:59:44;3.85;;;2.15;;
19396;SDS011;9834;48.076;11.878;2023-07-09T09:02:14;2.10;;;1.95;;
19396;SDS011;9834;48.076;11.878;2023-07-09T09:04:54;1.92;;;1.83;;
19396;SDS011;9834;48.076;11.878;2023-07-09T09:07:23;8.57;;;2.10;;
19396;SDS011;9834;48.076;11.878;2023-07-09T09:10:01;2.70;;;2.03;;
19396;SDS011;9834;48.076;11.878;2023-07-09T09:12:29;2.20;;;2.00;;
19396;SDS011;9834;48.076;11.878;2023-07-09T09:15:03;1.88;;;1.77;;
19396;SDS011;9834;48.076;11.878;2023-07-09T09:17:38;1.58;;;1.48;;
19396;SDS011;9834;48.076;11.878;2023-07-09T09:20:08;3.58;;;2.13;;
19396;SDS011;9834;48.076;11.878;2023-07-09T09:22:40;3.33;;;1.70;;
19396;SDS011;9834;48.076;11.878;2023-07-09T09:25:15;2.78;;;2.50;;
19396;SDS011;9834;48.076;11.878;2023-07-09T09:27:47;3.00;;;2.33;;
19396;SDS011;9834;48.076;11.878;2023-07-09T09:30:14;2.58;;;1.67;;
19396;SDS011;9834;48.076;11.878;2023-07-09T09:32:47;1.90;;;1.65;;
19396;SDS011;9834;48.076;11.878;2023-07-09T09:35:17;1.98;;;1.77;;
19396;SDS011;9834;48.076;11.878;2023-07-09T09:37:50;2.35;;;2.08;;
19396;SDS011;9834;48.076;11.878;2023-07-09T09:40:18;3.17;;;1.58;;
19396;SDS011;9834;48.076;11.878;2023-07-09T09:42:48;3.53;;;1.52;;
19396;SDS011;9834;48.076;11.878;2023-07-09T09:45:16;3.25;;;1.60;;
19396;SDS011;9834;48.076;11.878;2023-07-09T09:47:46;2.00;;;1.83;;
19396;SDS011;9834;48.076;11.878;2023-07-09T09:50:14;2.05;;;1.88;;
19396;SDS011;9834;48.076;11.878;2023-07-09T09:52:44;1.98;;;1.85;;
19396;SDS011;9834;48.076;11.878;2023-07-09T09:55:13;4.30;;;2.17;;
19396;SDS011;9834;48.076;11.878;2023-07-09T09:57:47;1.98;;;1.77;;
19396;SDS011;9834;48.076;11.878;2023-07-09T10:00:15;1.98;;;1.88;;
19396;SDS011;9834;48.076;11.878;2023-07-09T10:02:44;3.30;;;2.58;;
19396;SDS011;9834;48.076;11.878;2023-07-09T10:05:12;6.32;;;2.40;;
19396;SDS011;9834;48.076;11.878;2023-07-09T10:07:42;2.78;;;2.40;;
19396;SDS011;9834;48.076;11.878;2023-07-09T10:10:21;3.58;;;2.30;;
19396;SDS011;9834;48.076;11.878;2023-07-09T10:12:52;2.15;;;1.77;;
19396;SDS011;9834;48.076;11.878;2023-07-09T10:15:24;4.45;;;2.22;;
19396;SDS011;9834;48.076;11.878;2023-07-09T10:18:07;3.90;;;2.13;;
19396;SDS011;9834;48.076;11.878;2023-07-09T10:20:45;4.30;;;2.50;;
19396;SDS011;9834;48.076;11.878;2023-07-09T10:23:21;3.88;;;2.17;;
19396;SDS011;9834;48.076;11.878;2023-07-09T10:25:54;2.13;;;2.03;;
19396;SDS011;9834;48.076;11.878;2023-07-09T10:28:34;7.22;;;2.08;;
19396;SDS011;9834;48.076;11.878;2023-07-09T10:31:12;3.35;;;2.15;;
19396;SDS011;9834;48.076;11.878;2023-07-09T10:33:49;6.90;;;2.22;;
19396;SDS011;9834;48.076;11.878;2023-07-09T10:36:27;1.85;;;1.75;;
19396;SDS011;9834;48.076;11.878;2023-07-09T10:39:02;3.58;;;2.42;;
19396;SDS011;9834;48.076;11.878;2023-07-09T10:41:33;2.60;;;2.20;;
19396;SDS011;9834;48.076;11.878;2023-07-09T10:44:04;2.28;;;2.05;;
19396;SDS011;9834;48.076;11.878;2023-07-09T10:46:38;2.20;;;2.00;;
19396;SDS011;9834;48.076;11.878;2023-07-09T10:49:09;1.90;;;1.80;;
19396;SDS011;9834;48.076;11.878;2023-07-09T10:51:39;3.15;;;1.70;;
19396;SDS011;9834;48.076;11.878;2023-07-09T10:54:12;5.63;;;2.28;;
19396;SDS011;9834;48.076;11.878;2023-07-09T10:56:48;5.38;;;1.98;;
19396;SDS011;9834;48.076;11.878;2023-07-09T10:59:24;2.13;;;1.83;;
19396;SDS011;9834;48.076;11.878;2023-07-09T11:01:56;5.97;;;2.30;;
19396;SDS011;9834;48.076;11.878;2023-07-09T11:04:27;3.67;;;1.85;;
19396;SDS011;9834;48.076;11.878;2023-07-09T11:07:01;3.53;;;2.30;;
19396;SDS011;9834;48.076;11.878;2023-07-09T11:09:43;5.32;;;2.55;;
19396;SDS011;9834;48.076;11.878;2023-07-09T11:12:22;3.10;;;1.80;;
19396;SDS011;9834;48.076;11.878;2023-07-09T11:15:00;3.38;;;2.45;;
19396;SDS011;9834;48.076;11.878;2023-07-09T11:17:30;3.90;;;2.38;;
19396;SDS011;9834;48.076;11.878;2023-07-09T11:20:07;1.63;;;1.52;;
19396;SDS011;9834;48.076;11.878;2023-07-09T11:22:50;2.83;;;2.55;;
19396;SDS011;9834;48.076;11.878;2023-07-09T11:25:29;5.93;;;2.25;;
19396;SDS011;9834;48.076;11.878;2023-07-09T11:28:02;5.07;;;2.15;;
19396;SDS011;9834;48.076;11.878;2023-07-09T11:30:47;3.92;;;2.13;;
19396;SDS011;9834;48.076;11.878;2023-07-09T11:33:26;5.13;;;1.88;;
19396;SDS011;9834;48.076;11.878;2023-07-09T11:36:06;2.88;;;2.20;;
19396;SDS011;9834;48.076;11.878;2023-07-09T11:38:41;2.63;;;2.20;;
19396;SDS011;9834;48.076;11.878;2023-07-09T11:41:24;1.73;;;1.63;;
19396;SDS011;9834;48.076;11.878;2023-07-09T11:44:00;2.33;;;1.90;;
19396;SDS011;9834;48.076;11.878;2023-07-09T11:46:30;3.78;;;2.35;;
19396;SDS011;9834;48.076;11.878;2023-07-09T11:48:58;2.28;;;2.10;;
19396;SDS011;9834;48.076;11.878;2023-07-09T11:51:30;3.72;;;1.75;;
19396;SDS011;9834;48.076;11.878;2023-07-09T11:54:04;2.50;;;2.13;;
19396;SDS011;9834;48.076;11.878;2023-07-09T11:56:33;2.65;;;2.35;;
19396;SDS011;9834;48.076;11.878;2023-07-09T11:59:00;2.45;;;2.25;;
19396;SDS011;9834;48.076;11.878;2023-07-09T12:01:28;2.40;;;1.90;;
19396;SDS011;9834;48.076;11.878;2023-07-09T12:04:00;3.08;;;2.05;;
19396;SDS011;9834;48.076;11.878;2023-07-09T12:06:30;2.03;;;1.60;;
19396;SDS011;9834;48.076;11.878;2023-07-09T12:08:59;5.78;;;2.00;;
19396;SDS011;9834;48.076;11.878;2023-07-09T12:11:27;2.28;;;2.08;;
19396;SDS011;9834;48.076;11.878;2023-07-09T12:14:01;4.38;;;2.13;;
19396;SDS011;9834;48.076;11.878;2023-07-09T12:16:30;2.28;;;2.17;;
19396;SDS011;9834;48.076;11.878;2023-07-09T12:19:00;4.28;;;1.92;;
19396;SDS011;9834;48.076;11.878;2023-07-09T12:21:27;4.20;;;2.08;;
19396;SDS011;9834;48.076;11.878;2023-07-09T12:23:54;1.70;;;1.60;;
19396;SDS011;9834;48.076;11.878;2023-07-09T12:26:22;3.35;;;2.30;;
19396;SDS011;9834;48.076;11.878;2023-07-09T12:28:49;2.53;;;1.90;;
19396;SDS011;9834;48.076;11.878;2023-07-09T12:31:21;1.90;;;1.80;;
19396;SDS011;9834;48.076;11.878;2023-07-09T12:33:53;2.80;;;2.03;;
19396;SDS011;9834;48.076;11.878;2023-07-09T12:36:22;5.13;;;2.13;;
19396;SDS011;9834;48.076;11.878;2023-07-09T12:38:52;4.88;;;2.65;;
19396;SDS011;9834;48.076;11.878;2023-07-09T12:41:22;1.65;;;1.55;;
19396;SDS011;9834;48.076;11.878;2023-07-09T12:43:51;2.63;;;1.95;;
19396;SDS011;9834;48.076;11.878;2023-07-09T12:46:20;7.30;;;2.00;;
19396;SDS011;9834;48.076;11.878;2023-07-09T12:48:48;3.78;;;2.30;;
19396;SDS011;9834;48.076;11.878;2023-07-09T12:51:18;2.17;;;1.98;;
19396;SDS011;9834;48.076;11.878;2023-07-09T12:53:49;2.17;;;1.98;;
19396;SDS011;9834;48.076;11.878;2023-07-09T12:56:27;3.38;;;1.70;;
19396;SDS011;9834;48.076;11.878;2023-07-09T12:58:56;1.67;;;1.58;;
19396;SDS011;9834;48.076;11.878;2023-07-09T13:01:25;2.80;;;2.58;;
19396;SDS011;9834;48.076;11.878;2023-07-09T13:03:53;4.55;;;2.47;;
19396;SDS011;9834;48.076;11.878;2023-07-09T13:06:26;2.35;;;2.10;;
19396;SDS011;9834;48.076;11.878;2023-07-09T13:08:55;1.75;;;1.65;;
19396;SDS011;9834;48.076;11.878;2023-07-09T13:11:24;1.80;;;1.70;;
19396;SDS011;9834;48.076;11.878;2023-07-09T13:13:58;2.28;;;2.08;;
19396;SDS011;9834;48.076;11.878;2023-07-09T13:16:29;2.13;;;2.03;;
19396;SDS011;9834;48.076;11.878;2023-07-09T13:18:56;3.25;;;1.98;;
19396;SDS011;9834;48.076;11.878;2023-07-09T13:21:23;1.77;;;1.67;;
19396;SDS011;9834;48.076;11.878;2023-07-09T13:23:54;2.50;;;2.20;;
19396;SDS011;9834;48.076;11.878;2023-07-09T13:26:21;2.72;;;2.53;;
19396;SDS011;9834;48.076;11.878;2023-07-09T13:28:48;1.75;;;1.65;;
19396;SDS011;9834;48.076;11.878;2023-07-09T13:31:16;4.13;;;1.98;;
19396;SDS011;9834;48.076;11.878;2023-07-09T13:33:49;2.50;;;2.30;;
19396;SDS011;9834;48.076;11.878;2023-07-09T13:36:20;2.33;;;2.13;;
19396;SDS011;9834;48.076;11.878;2023-07-09T13:38:47;2.70;;;2.05;;
19396;SDS011;9834;48.076;11.878;2023-07-09T13:41:16;1.88;;;1.70;;
19396;SDS011;9834;48.076;11.878;2023-07-09T13:43:47;2.25;;;1.85;;
19396;SDS011;9834;48.076;11.878;2023-07-09T13:46:17;3.20;;;2.58;;
19396;SDS011;9834;48.076;11.878;2023-07-09T13:48:45;2.53;;;1.80;;
19396;SDS011;9834;48.076;11.878;2023-07-09T13:51:17;3.10;;;1.92;;
19396;SDS011;9834;48.076;11.878;2023-07-09T13:53:46;2.50;;;2.30;;
19396;SDS011;9834;48.076;11.878;2023-07-09T13:56:14;3.20;;;2.30;;
19396;SDS011;9834;48.076;11.878;2023-07-09T13:58:41;2.20;;;2.00;;
19396;SDS011;9834;48.076;11.878;2023-07-09T14:01:10;3.03;;;2.45;;
19396;SDS011;9834;48.076;11.878;2023-07-09T14:03:39;2.55;;;2.00;;
19396;SDS011;9834;48.076;11.878;2023-07-09T14:06:08;1.98;;;1.88;;
19396;SDS011;9834;48.076;11.878;2023-07-09T14:08:38;3.05;;;2.75;;
19396;SDS011;9834;48.076;11.878;2023-07-09T14:11:08;1.90;;;1.80;;
19396;SDS011;9834;48.076;11.878;2023-07-09T14:13:37;1.98;;;1.85;;
19396;SDS011;9834;48.076;11.878;2023-07-09T14:16:05;2.30;;;2.10;;
19396;SDS011;9834;48.076;11.878;2023-07-09T14:18:32;2.33;;;2.13;;
19396;SDS011;9834;48.076;11.878;2023-07-09T14:20:59;2.25;;;2.05;;
19396;SDS011;9834;48.076;11.878;2023-07-09T14:23:28;2.60;;;2.22;;
19396;SDS011;9834;48.076;11.878;2023-07-09T14:25:56;2.22;;;2.08;;
19396;SDS011;9834;48.076;11.878;2023-07-09T14:28:23;1.92;;;1.80;;
19396;SDS011;9834;48.076;11.878;2023-07-09T14:30:50;3.42;;;2.45;;
19396;SDS011;9834;48.076;11.878;2023-07-09T14:33:18;3.50;;;2.35;;
19396;SDS011;9834;48.076;11.878;2023-07-09T14:35:47;2.38;;;2.17;;
19396;SDS011;9834;48.076;11.878;2023-07-09T14:38:15;7.13;;;2.47;;
19396;SDS011;9834;48.076;11.878;2023-07-09T14:40:45;2.53;;;2.33;;
19396;SDS011;9834;48.076;11.878;2023-07-09T14:43:13;2.42;;;1.98;;
19396;SDS011;9834;48.076;11.878;2023-07-09T14:45:41;4.25;;;2.00;;
19396;SDS011;9834;48.076;11.878;2023-07-09T14:48:09;1.90;;;1.75;;
19396;SDS011;9834;48.076;11.878;2023-07-09T14:50:37;3.67;;;2.13;;
19396;SDS011;9834;48.076;11.878;2023-07-09T14:53:05;2.70;;;1.92;;
19396;SDS011;9834;48.076;11.878;2023-07-09T14:55:40;1.98;;;1.88;;
19396;SDS011;9834;48.076;11.878;2023-07-09T14:58:11;3.25;;;2.15;;
19396;SDS011;9834;48.076;11.878;2023-07-09T15:00:42;4.28;;;2.22;;
19396;SDS011;9834;48.076;11.878;2023-07-09T15:03:12;1.75;;;1.65;;
19396;SDS011;9834;48.076;11.878;2023-07-09T15:05:44;2.58;;;2.38;;